Terminal Aerodrome Forecast
Issued by NWS Central Illinois

Home | Current Version | Previous Version | Text Only | Print | Product List | Glossary On
Versions: 1 2 3 4 5 6 7 8 9 10 11 12 13 14 15 16 17 18 19 20
407
FTUS43 KILX 221737
TAFPIA
TAF
KPIA 221737Z 2218/2318 22012G23KT P6SM SCT070
     FM222100 22014G22KT P6SM VCSH BKN070
     FM230000 21010KT P6SM VCSH BKN050
     FM230700 20005KT P6SM BKN080
     FM231000 20004KT P6SM VCSH BKN050=

USA.gov is the U.S. government's official web portal to all federal, state and local government web resources and services.